createdAt,value
2019-01-25T00:06:09.002Z,24.70
2019-01-25T00:16:13.961Z,24.70
2019-01-25T00:26:18.496Z,24.70
2019-01-25T00:36:23.149Z,24.80
2019-01-25T00:46:27.840Z,24.80
2019-01-25T00:56:32.458Z,24.80
2019-01-25T01:06:36.916Z,24.80
2019-01-25T01:16:41.343Z,24.80
2019-01-25T01:26:45.820Z,24.80
2019-01-25T01:36:50.697Z,24.90
2019-01-25T01:46:55.075Z,24.80
2019-01-25T01:56:59.677Z,24.80
2019-01-25T02:07:04.177Z,24.80
2019-01-25T02:17:08.570Z,24.80
2019-01-25T02:27:13.027Z,24.80
2019-01-25T02:37:17.600Z,24.80
2019-01-25T02:47:22.174Z,24.80
2019-01-25T02:57:26.506Z,24.80
2019-01-25T03:07:30.898Z,24.80
2019-01-25T03:17:35.198Z,24.80
2019-01-25T03:27:39.834Z,24.80
2019-01-25T03:37:44.235Z,24.80
2019-01-25T03:47:48.593Z,24.80
2019-01-25T03:57:54.173Z,24.80
2019-01-25T04:07:58.591Z,24.80
2019-01-25T04:18:03.119Z,24.80
2019-01-25T04:28:07.578Z,24.80
2019-01-25T04:38:12.253Z,24.80
2019-01-25T04:48:16.830Z,24.80
2019-01-25T04:58:21.676Z,24.80
2019-01-25T05:08:26.053Z,24.80
2019-01-25T05:18:30.627Z,24.80
2019-01-25T05:28:35.144Z,24.80
2019-01-25T05:38:39.495Z,24.80
2019-01-25T05:48:44.168Z,24.80
2019-01-25T05:58:48.550Z,24.80
2019-01-25T06:08:53.161Z,24.90
2019-01-25T06:18:57.636Z,24.90
2019-01-25T06:29:01.953Z,24.30
2019-01-25T06:39:09.367Z,23.60
2019-01-25T06:49:13.814Z,23.00
2019-01-25T06:59:19.633Z,23.50
2019-01-25T07:09:24.118Z,23.70
2019-01-25T07:19:28.383Z,23.90
2019-01-25T07:29:32.944Z,23.20
2019-01-25T07:39:37.487Z,20.80
2019-01-25T07:49:42.026Z,19.90
2019-01-25T07:59:46.452Z,21.40
2019-01-25T08:09:51.387Z,22.30
2019-01-25T08:19:56.255Z,22.90
2019-01-25T08:30:00.980Z,23.10
2019-01-25T08:40:09.215Z,23.30
2019-01-25T08:50:22.261Z,23.50
2019-01-25T09:00:27.006Z,23.60
2019-01-25T09:10:31.416Z,23.60
2019-01-25T09:20:35.991Z,23.70
2019-01-25T09:30:40.271Z,23.70
2019-01-25T09:40:44.925Z,23.80
2019-01-25T09:50:52.950Z,23.80
2019-01-25T10:01:00.335Z,23.80
2019-01-25T10:11:05.006Z,23.80
2019-01-25T10:21:09.676Z,23.80
2019-01-25T10:31:13.977Z,23.90
2019-01-25T10:41:18.350Z,23.90
2019-01-25T10:51:22.861Z,23.90
2019-01-25T11:01:27.627Z,23.90
2019-01-25T11:11:31.886Z,23.90
2019-01-25T11:21:37.617Z,23.90
2019-01-25T11:31:42.264Z,23.90
2019-01-25T11:41:46.734Z,23.90
2019-01-25T11:51:51.105Z,23.90
2019-01-25T12:01:55.644Z,23.90
2019-01-25T12:12:00.243Z,23.80
2019-01-25T12:22:04.606Z,23.80
2019-01-25T12:32:08.911Z,23.80
2019-01-25T12:42:13.574Z,23.80
2019-01-25T12:52:18.244Z,23.80
2019-01-25T13:02:23.100Z,23.20
2019-01-25T13:12:27.668Z,23.00
2019-01-25T13:22:32.664Z,23.30
2019-01-25T13:32:37.312Z,23.40
2019-01-25T13:42:42.078Z,23.40
2019-01-25T13:52:46.659Z,23.40
2019-01-25T14:02:51.213Z,23.40
2019-01-25T14:12:55.699Z,23.60
2019-01-25T14:23:00.375Z,23.70
2019-01-25T14:33:05.306Z,23.70
2019-01-25T14:43:09.920Z,23.80
2019-01-25T14:53:14.321Z,23.80
2019-01-25T15:03:18.859Z,23.80
2019-01-25T15:13:23.731Z,23.80
2019-01-25T15:23:28.308Z,23.80
2019-01-25T15:33:33.004Z,23.80
2019-01-25T15:43:37.551Z,23.90
2019-01-25T15:53:53.146Z,24.00
2019-01-25T16:04:08.931Z,24.00
2019-01-25T16:14:18.080Z,24.10
2019-01-25T16:24:22.230Z,24.10
2019-01-25T16:34:27.748Z,24.10
2019-01-25T16:44:32.179Z,24.10
2019-01-25T16:54:36.447Z,24.10
2019-01-25T17:04:40.918Z,24.10
2019-01-25T17:14:45.345Z,24.20
2019-01-25T17:24:50.191Z,24.10
2019-01-25T17:34:54.555Z,24.00
2019-01-25T17:44:59.012Z,24.00
2019-01-25T17:55:03.901Z,24.00
2019-01-25T18:05:08.777Z,24.00
2019-01-25T18:15:15.702Z,24.10
2019-01-25T18:25:41.395Z,24.20
2019-01-25T18:35:46.039Z,24.30
2019-01-25T18:45:50.725Z,24.40
2019-01-25T18:55:55.231Z,24.40
2019-01-25T19:06:01.838Z,24.30
2019-01-25T19:16:06.422Z,24.40
2019-01-25T19:26:11.181Z,24.50
2019-01-25T19:36:15.644Z,24.60
2019-01-25T19:47:25.548Z,24.60
2019-01-25T19:57:29.983Z,24.80
2019-01-25T20:07:34.659Z,24.60
2019-01-25T20:17:39.373Z,24.50
2019-01-25T20:27:44.260Z,24.40
2019-01-25T20:37:50.813Z,24.30
2019-01-25T20:48:20.580Z,24.30
2019-01-25T20:58:26.622Z,24.30
2019-01-25T21:08:31.105Z,24.20
2019-01-25T21:18:35.975Z,24.20
2019-01-25T21:28:40.376Z,24.20
2019-01-25T21:38:44.888Z,24.20
2019-01-25T21:48:49.341Z,24.20
2019-01-25T21:58:53.892Z,24.20
2019-01-25T22:08:58.539Z,24.20
2019-01-25T22:19:02.944Z,24.20
2019-01-25T22:29:07.485Z,24.20
2019-01-25T22:39:11.957Z,24.20
2019-01-25T22:49:16.448Z,24.20
2019-01-25T22:59:20.895Z,24.30
2019-01-25T23:09:28.550Z,24.30
2019-01-25T23:19:32.855Z,24.20
2019-01-25T23:29:37.171Z,24.20
2019-01-25T23:39:41.680Z,24.30
2019-01-25T23:49:46.265Z,24.30
2019-01-25T23:59:50.711Z,24.20
